Notice: Undefined index: language in D:\xampp\htdocs\vam\index.php on line 25
Open Air Virtual

 METAR AND TAF INFORMATION
METAR FOR ENRA
ADDS - METARS form results

(2219 UTC 14 December 2019)
Data provider http://aviationweather.gov/metar/data/
 
Forecast for: ENRA (MOIRANA , NO)
Text: TAF ENRA 141100Z 1412/1416 09015G30KT 9999 BKN040
Forecast period: 1200 to 1600 UTC 14 December 2019
Forecast type: FROM: standard forecast or significant change
Winds: from the E (90 degrees) at 17 MPH (15 knots; 7.7 m/s)
gusting to 34 MPH (30 knots; 15.4 m/s)
Visibility: 6 or more miles 10+ km)
Ceiling: 4000 feet AGL
Clouds: broken clouds at 4000 feet AGL
Weather: no significant weather forecast for this period

 AIRPORT MAP

 RUNWAY INFORMATION
Runway 14 Runway length 2759 ft Runway width 0 ft
Runway elevation 226 ft Runway displaced threshold 0 ft Runway heading 0
Runway 32 Runway length 2759 ft Runway width 0 ft
Runway elevation 220 ft Runway displaced threshold 0 ft Runway heading 0

 AIRPORT FREQUENCIES

 AIRPORT NEAR NAVIGATION AIDS
Type NDB Name Strommen Frequency 345 KHZ



Powered by Virtual Airlines Manager [v2.6.2]